createdAt,value
2022-08-18T00:01:43.234Z,9
2022-08-18T00:06:55.193Z,9
2022-08-18T00:12:07.524Z,9
2022-08-18T00:17:19.872Z,9
2022-08-18T00:22:32.182Z,9
2022-08-18T00:27:45.043Z,9
2022-08-18T00:32:57.023Z,9
2022-08-18T00:38:26.003Z,9
2022-08-18T00:43:34.893Z,9
2022-08-18T00:48:49.889Z,10
2022-08-18T00:54:08.771Z,10
2022-08-18T00:59:20.992Z,10
2022-08-18T01:04:33.240Z,10
2022-08-18T01:09:45.431Z,10
2022-08-18T01:14:57.632Z,10
2022-08-18T01:20:09.768Z,10
2022-08-18T01:25:27.039Z,10
2022-08-18T01:30:40.502Z,11
2022-08-18T01:35:52.954Z,11
2022-08-18T01:41:32.022Z,11
2022-08-18T01:46:40.320Z,11
2022-08-18T01:51:52.499Z,12
2022-08-18T01:57:04.798Z,12
2022-08-18T02:02:19.633Z,12
2022-08-18T02:07:37.118Z,12
2022-08-18T02:12:51.063Z,12
2022-08-18T02:18:03.021Z,11
2022-08-18T02:23:15.415Z,12
2022-08-18T02:28:31.424Z,12
2022-08-18T02:33:53.404Z,12
2022-08-18T02:39:04.265Z,11
2022-08-18T02:44:16.434Z,10
2022-08-18T02:49:28.705Z,11
2022-08-18T02:54:40.737Z,10
2022-08-18T02:59:52.936Z,10
2022-08-18T03:05:05.175Z,10
2022-08-18T03:10:34.924Z,10
2022-08-18T03:15:43.816Z,10
2022-08-18T03:20:55.846Z,10
2022-08-18T03:26:07.916Z,10
2022-08-18T03:31:20.166Z,10
2022-08-18T03:36:32.456Z,9
2022-08-18T03:42:02.655Z,9
2022-08-18T03:47:11.604Z,9
2022-08-18T03:52:23.503Z,9
2022-08-18T03:57:40.153Z,9
2022-08-18T04:02:54.504Z,9
2022-08-18T04:08:06.704Z,8
2022-08-18T04:13:18.805Z,8
2022-08-18T04:18:31.175Z,8
2022-08-18T04:23:45.024Z,8
2022-08-18T04:28:56.706Z,8
2022-08-18T04:34:08.934Z,8
2022-08-18T04:39:21.138Z,8
2022-08-18T04:44:33.286Z,8
2022-08-18T04:49:45.426Z,8
2022-08-18T04:54:57.818Z,8
2022-08-18T05:00:10.028Z,8
2022-08-18T05:05:22.097Z,8
2022-08-18T05:10:34.366Z,8
2022-08-18T05:16:28.124Z,8
2022-08-18T05:21:39.344Z,8
2022-08-18T05:26:51.008Z,8
2022-08-18T05:32:03.406Z,8
2022-08-18T05:37:15.917Z,8
2022-08-18T05:42:28.386Z,8
2022-08-18T05:47:40.975Z,9
2022-08-18T05:52:53.455Z,10
2022-08-18T05:58:05.879Z,10
2022-08-18T06:03:18.785Z,10
2022-08-18T06:08:31.538Z,11
2022-08-18T06:13:43.935Z,11
2022-08-18T06:18:56.315Z,11
2022-08-18T06:24:08.806Z,12
2022-08-18T06:29:21.377Z,12
2022-08-18T06:34:33.889Z,13
2022-08-18T06:39:46.650Z,14
2022-08-18T06:44:59.171Z,14
2022-08-18T06:50:11.446Z,13
2022-08-18T06:55:23.700Z,14
2022-08-18T07:00:38.121Z,14
2022-08-18T07:05:50.781Z,15
2022-08-18T07:11:03.079Z,15
2022-08-18T07:16:59.145Z,15
2022-08-18T07:22:07.248Z,16
2022-08-18T07:27:19.369Z,16
2022-08-18T07:32:31.547Z,16
2022-08-18T07:37:43.995Z,16
2022-08-18T07:43:03.027Z,15
2022-08-18T07:48:40.952Z,16
2022-08-18T07:53:57.358Z,15
2022-08-18T07:59:08.310Z,15
2022-08-18T08:04:27.211Z,15
2022-08-18T08:09:40.959Z,14
2022-08-18T08:14:53.466Z,13
2022-08-18T08:20:05.617Z,12
2022-08-18T08:25:48.236Z,12
2022-08-18T12:59:47.170Z,87
2022-08-18T13:05:02.217Z,88
2022-08-18T13:10:58.441Z,89
2022-08-18T13:22:33.284Z,89
2022-08-18T13:27:46.548Z,90
2022-08-18T13:33:59.853Z,91
2022-08-18T13:39:10.838Z,90
2022-08-18T13:49:36.430Z,93
2022-08-18T13:54:56.406Z,93
2022-08-18T14:00:31.585Z,93
2022-08-18T14:06:01.915Z,93
2022-08-18T14:11:11.637Z,93
2022-08-18T14:16:28.014Z,92
2022-08-18T14:21:43.642Z,92
2022-08-18T14:26:56.477Z,91
2022-08-18T14:32:21.882Z,91
2022-08-18T14:37:38.909Z,90
2022-08-18T14:42:56.316Z,90
2022-08-18T14:48:13.365Z,95
2022-08-18T14:53:27.508Z,95
2022-08-18T14:58:39.906Z,96
2022-08-18T15:03:52.608Z,95
2022-08-18T15:09:05.961Z,95
2022-08-18T15:14:20.437Z,95
2022-08-18T15:20:02.522Z,95
2022-08-18T15:25:13.443Z,94
2022-08-18T15:30:27.248Z,96
2022-08-18T15:35:46.213Z,96
2022-08-18T15:41:10.067Z,97
2022-08-18T15:46:22.296Z,97
2022-08-18T15:51:46.010Z,98
2022-08-18T16:02:21.224Z,97
2022-08-18T16:07:45.652Z,98
2022-08-18T16:12:55.352Z,98
2022-08-18T16:18:08.827Z,97
2022-08-18T16:23:21.475Z,95
2022-08-18T16:33:44.569Z,93
2022-08-18T16:38:59.401Z,97
2022-08-18T16:44:11.047Z,98
2022-08-18T16:49:23.079Z,99
2022-08-18T16:54:35.650Z,99
2022-08-18T16:59:48.104Z,98
2022-08-18T17:05:00.295Z,91
2022-08-18T17:10:12.139Z,33
